createdAt,value
2018-07-30T00:02:13.975Z,15.30
2018-07-30T00:04:42.777Z,15.37
2018-07-30T00:07:11.781Z,14.50
2018-07-30T00:09:40.552Z,14.57
2018-07-30T00:12:09.222Z,14.50
2018-07-30T00:14:38.242Z,14.50
2018-07-30T00:17:06.953Z,14.97
2018-07-30T00:19:35.585Z,13.97
2018-07-30T00:22:04.313Z,13.80
2018-07-30T00:24:33.105Z,14.70
2018-07-30T00:27:01.818Z,14.63
2018-07-30T00:29:31.490Z,14.30
2018-07-30T00:32:00.243Z,14.97
2018-07-30T00:34:28.927Z,15.93
2018-07-30T00:36:57.585Z,14.87
2018-07-30T00:39:26.274Z,15.50
2018-07-30T00:41:55.265Z,14.97
2018-07-30T00:44:24.529Z,14.60
2018-07-30T00:46:53.645Z,15.40
2018-07-30T00:49:22.291Z,13.97
2018-07-30T00:51:51.129Z,14.97
2018-07-30T00:54:20.208Z,13.73
2018-07-30T00:56:49.256Z,15.07
2018-07-30T00:59:18.006Z,14.57
2018-07-30T01:01:46.794Z,14.47
2018-07-30T01:04:15.472Z,14.57
2018-07-30T01:06:44.164Z,15.00
2018-07-30T01:09:12.900Z,14.97
2018-07-30T01:11:42.132Z,14.30
2018-07-30T01:14:14.330Z,15.43
2018-07-30T01:16:43.480Z,14.90
2018-07-30T01:19:12.136Z,15.47
2018-07-30T01:21:41.676Z,14.73
2018-07-30T01:24:10.393Z,15.20
2018-07-30T01:26:39.237Z,15.67
2018-07-30T01:29:07.930Z,14.47
2018-07-30T01:31:36.559Z,15.00
2018-07-30T01:34:05.479Z,15.13
2018-07-30T01:36:34.176Z,14.37
2018-07-30T01:39:03.128Z,15.40
2018-07-30T01:41:32.136Z,15.20
2018-07-30T01:44:00.813Z,14.97
2018-07-30T01:46:29.488Z,14.70
2018-07-30T01:48:59.909Z,14.90
2018-07-30T01:51:28.906Z,14.77
2018-07-30T01:53:57.919Z,14.90
2018-07-30T01:56:27.079Z,15.17
2018-07-30T01:58:56.064Z,15.20
2018-07-30T02:01:25.052Z,15.80
2018-07-30T02:03:54.608Z,14.90
2018-07-30T02:06:23.315Z,15.50
2018-07-30T02:08:51.996Z,14.40
2018-07-30T02:11:20.678Z,15.77
2018-07-30T02:13:49.404Z,15.20
2018-07-30T02:16:18.079Z,16.00
2018-07-30T02:18:48.844Z,15.50
2018-07-30T02:21:17.542Z,15.37
2018-07-30T02:23:46.471Z,15.73
2018-07-30T02:26:15.910Z,16.03
2018-07-30T02:28:44.663Z,14.83
2018-07-30T02:31:13.609Z,15.63
2018-07-30T02:33:42.392Z,15.20
2018-07-30T02:36:11.130Z,15.10
2018-07-30T02:38:39.815Z,15.13
2018-07-30T02:41:08.567Z,15.97
2018-07-30T02:43:37.290Z,15.20
2018-07-30T02:46:06.092Z,15.57
2018-07-30T02:48:34.727Z,15.70
2018-07-30T02:51:03.414Z,14.93
2018-07-30T02:53:32.028Z,16.30
2018-07-30T02:56:00.852Z,14.87
2018-07-30T02:58:29.811Z,15.60
2018-07-30T03:00:58.472Z,15.50
2018-07-30T03:03:27.799Z,15.63
2018-07-30T03:05:56.448Z,15.47
2018-07-30T03:08:25.044Z,15.90
2018-07-30T03:10:54.031Z,15.07
2018-07-30T03:13:22.699Z,15.67
2018-07-30T03:15:51.801Z,14.97
2018-07-30T03:18:20.546Z,16.00
2018-07-30T03:20:49.594Z,15.57
2018-07-30T03:23:18.280Z,15.73
2018-07-30T03:25:46.993Z,15.33
2018-07-30T03:28:15.901Z,17.30
2018-07-30T03:30:44.785Z,15.70
2018-07-30T03:33:13.875Z,14.97
2018-07-30T03:35:42.836Z,15.63
2018-07-30T03:38:11.786Z,15.83
2018-07-30T03:40:41.274Z,15.17
2018-07-30T03:43:10.584Z,15.73
2018-07-30T03:45:39.234Z,15.47
2018-07-30T03:48:08.270Z,15.57
2018-07-30T03:50:36.865Z,16.40
2018-07-30T03:53:05.977Z,16.30
2018-07-30T03:55:34.657Z,15.73
2018-07-30T03:58:03.541Z,16.10
2018-07-30T04:00:32.151Z,16.00
2018-07-30T04:03:00.868Z,15.77
2018-07-30T04:05:29.583Z,16.10
2018-07-30T04:07:58.608Z,15.77
2018-07-30T04:10:27.918Z,15.80
2018-07-30T04:12:56.600Z,15.80
2018-07-30T04:15:25.651Z,15.60
2018-07-30T04:17:55.144Z,15.50
2018-07-30T04:20:24.511Z,16.00
2018-07-30T04:22:53.178Z,15.87
2018-07-30T04:25:22.347Z,15.43
2018-07-30T04:27:51.350Z,16.20
2018-07-30T04:30:19.996Z,15.93
2018-07-30T04:32:48.726Z,16.77
2018-07-30T04:35:17.986Z,17.00
2018-07-30T04:37:46.653Z,15.70
2018-07-30T04:40:15.340Z,16.53
2018-07-30T04:42:44.370Z,16.60
2018-07-30T04:45:13.311Z,15.40
2018-07-30T04:47:42.087Z,16.07
2018-07-30T04:50:11.106Z,15.87
2018-07-30T04:52:39.962Z,17.30
2018-07-30T04:55:09.383Z,15.00
2018-07-30T04:57:38.376Z,16.23
2018-07-30T05:00:07.656Z,15.97
2018-07-30T05:02:36.739Z,15.43
2018-07-30T05:05:06.461Z,16.23
2018-07-30T05:07:35.423Z,16.03
2018-07-30T05:10:04.825Z,15.80
2018-07-30T05:12:33.625Z,17.50
2018-07-30T05:15:02.850Z,16.80
2018-07-30T05:17:31.828Z,17.80
2018-07-30T05:20:00.753Z,16.07
2018-07-30T05:22:29.443Z,17.27
2018-07-30T05:24:58.221Z,16.60
2018-07-30T05:27:26.946Z,16.53
2018-07-30T05:29:55.957Z,16.30
2018-07-30T05:32:25.132Z,17.47
2018-07-30T05:34:54.054Z,15.97
2018-07-30T05:37:23.547Z,16.87
2018-07-30T05:39:52.492Z,16.27
2018-07-30T05:42:21.231Z,16.27
2018-07-30T05:44:50.292Z,16.87
2018-07-30T05:47:18.954Z,16.33
2018-07-30T05:49:47.858Z,16.97
2018-07-30T05:52:16.612Z,16.10
2018-07-30T05:54:45.262Z,17.10
2018-07-30T05:57:13.907Z,16.10
2018-07-30T05:59:42.627Z,17.00
2018-07-30T06:02:11.564Z,17.23
2018-07-30T06:04:40.290Z,16.83
2018-07-30T06:07:09.017Z,16.90
2018-07-30T06:09:37.799Z,16.90
2018-07-30T06:12:06.492Z,16.47
2018-07-30T06:14:35.762Z,17.40
2018-07-30T06:17:04.750Z,16.97
2018-07-30T06:19:34.153Z,16.80
2018-07-30T06:22:02.855Z,17.97
2018-07-30T06:24:31.529Z,16.70
2018-07-30T06:27:00.189Z,16.03
2018-07-30T06:29:29.160Z,16.90
2018-07-30T06:31:58.135Z,17.03
2018-07-30T06:34:27.093Z,16.10
2018-07-30T06:36:55.796Z,15.30
2018-07-30T06:39:24.643Z,16.60
2018-07-30T06:41:53.662Z,16.47
2018-07-30T06:44:22.670Z,16.50
2018-07-30T06:46:51.678Z,16.23
2018-07-30T06:49:20.642Z,16.60
2018-07-30T06:51:49.638Z,16.50
2018-07-30T06:54:18.646Z,17.57
2018-07-30T06:56:47.360Z,16.23
2018-07-30T06:59:16.322Z,15.83
2018-07-30T07:01:45.107Z,17.43
2018-07-30T07:04:14.801Z,17.90
2018-07-30T07:06:43.727Z,17.67
2018-07-30T07:09:12.772Z,17.70
2018-07-30T07:11:42.135Z,16.43
2018-07-30T07:14:10.842Z,16.87
2018-07-30T07:16:39.671Z,17.90
2018-07-30T07:19:08.311Z,16.73
2018-07-30T07:21:37.741Z,17.50
2018-07-30T07:24:06.567Z,17.97
2018-07-30T07:26:35.548Z,17.73
2018-07-30T07:29:04.370Z,16.83
2018-07-30T07:31:33.280Z,16.43
2018-07-30T07:34:02.945Z,17.33
2018-07-30T07:36:31.657Z,16.53
2018-07-30T07:39:00.555Z,16.47
2018-07-30T07:41:29.197Z,16.00
2018-07-30T07:43:57.891Z,16.17
2018-07-30T07:46:27.010Z,17.10
2018-07-30T07:48:56.303Z,15.80
2018-07-30T07:51:25.510Z,16.40
2018-07-30T07:53:54.155Z,16.20
2018-07-30T07:56:23.802Z,14.80
2018-07-30T07:58:54.599Z,15.50
2018-07-30T08:01:23.598Z,15.63
2018-07-30T08:03:52.644Z,14.40
2018-07-30T08:06:21.502Z,15.37
2018-07-30T08:08:50.168Z,15.47
2018-07-30T08:11:18.852Z,15.37
2018-07-30T08:13:47.664Z,15.40
2018-07-30T08:16:16.529Z,14.60
2018-07-30T08:18:45.567Z,14.10
2018-07-30T08:21:14.318Z,14.43
2018-07-30T08:23:43.173Z,14.70
2018-07-30T08:26:12.096Z,14.67
2018-07-30T08:28:40.956Z,15.27
2018-07-30T08:31:09.805Z,14.13
2018-07-30T08:33:38.577Z,13.20
2018-07-30T08:36:07.457Z,14.20
2018-07-30T08:38:36.205Z,13.70
2018-07-30T08:41:04.890Z,13.30
2018-07-30T08:43:33.684Z,13.20
2018-07-30T08:46:02.678Z,12.60
2018-07-30T08:48:31.467Z,13.13
2018-07-30T08:51:00.907Z,12.30
2018-07-30T08:53:29.643Z,12.87
2018-07-30T08:55:58.312Z,12.83
2018-07-30T08:58:27.063Z,13.00
2018-07-30T09:00:57.631Z,12.30
2018-07-30T09:03:26.329Z,12.80
2018-07-30T09:05:55.144Z,12.80
2018-07-30T09:08:23.851Z,12.27
2018-07-30T09:10:52.612Z,13.10
2018-07-30T09:13:21.347Z,12.63
2018-07-30T09:15:50.083Z,12.67
2018-07-30T09:18:18.797Z,12.27
2018-07-30T09:20:47.476Z,12.40
2018-07-30T09:23:16.173Z,12.63
2018-07-30T09:25:44.965Z,12.77
2018-07-30T09:28:13.671Z,12.80
2018-07-30T09:30:42.447Z,12.90
2018-07-30T09:33:11.179Z,13.17
2018-07-30T09:35:39.837Z,12.70
2018-07-30T09:38:09.824Z,13.27
2018-07-30T09:40:38.539Z,12.67
2018-07-30T09:43:07.194Z,12.20
2018-07-30T09:45:35.881Z,12.40
2018-07-30T09:48:04.701Z,12.07
2018-07-30T09:50:33.428Z,11.77
2018-07-30T09:53:02.144Z,12.37
2018-07-30T09:55:30.829Z,12.30
2018-07-30T09:57:59.822Z,12.50
2018-07-30T10:00:33.523Z,12.60
2018-07-30T10:03:02.238Z,12.23
2018-07-30T10:05:30.929Z,12.53
2018-07-30T10:07:59.583Z,12.13
2018-07-30T10:10:28.272Z,12.10
2018-07-30T10:12:56.965Z,11.70
2018-07-30T10:15:25.949Z,11.47
2018-07-30T10:17:54.653Z,11.50
2018-07-30T10:20:23.262Z,11.03
2018-07-30T10:22:51.873Z,11.10
2018-07-30T10:25:20.591Z,10.80
2018-07-30T10:27:49.895Z,10.60
2018-07-30T10:30:18.714Z,11.27
2018-07-30T10:32:47.669Z,11.00
2018-07-30T10:35:17.104Z,11.00
2018-07-30T10:37:45.743Z,11.03
2018-07-30T10:40:14.486Z,11.00
2018-07-30T10:42:43.196Z,11.43
2018-07-30T10:45:12.150Z,11.10
2018-07-30T10:47:40.852Z,10.97
2018-07-30T10:50:09.597Z,11.13
2018-07-30T10:52:41.677Z,11.10
2018-07-30T10:55:10.373Z,20.23
2018-07-30T10:57:38.985Z,10.67
2018-07-30T11:00:08.050Z,10.77
2018-07-30T11:02:36.963Z,10.90
2018-07-30T11:05:06.121Z,12.00
2018-07-30T11:07:34.900Z,11.20
2018-07-30T11:10:04.153Z,11.47
2018-07-30T11:12:33.126Z,11.60
2018-07-30T11:15:01.857Z,13.37
2018-07-30T11:17:30.640Z,11.77
2018-07-30T11:19:59.332Z,11.90
2018-07-30T11:22:27.976Z,11.83
2018-07-30T11:24:56.695Z,10.90
2018-07-30T11:27:25.460Z,10.40
2018-07-30T11:29:54.506Z,10.90
2018-07-30T11:32:23.193Z,10.87
2018-07-30T11:34:51.882Z,11.70
2018-07-30T11:37:20.600Z,11.50
2018-07-30T11:39:49.407Z,11.10
2018-07-30T11:42:18.372Z,10.73
2018-07-30T11:44:47.048Z,10.87
2018-07-30T11:47:15.849Z,10.70
2018-07-30T11:49:44.583Z,10.90
2018-07-30T11:52:13.652Z,10.70
2018-07-30T11:54:42.719Z,10.30
2018-07-30T11:57:11.431Z,11.13
2018-07-30T11:59:40.148Z,11.00
2018-07-30T12:02:08.813Z,11.17
2018-07-30T12:04:37.804Z,11.60
2018-07-30T12:07:06.502Z,10.00
2018-07-30T12:09:35.695Z,10.50
2018-07-30T12:12:04.469Z,10.40
2018-07-30T12:14:33.573Z,12.47
2018-07-30T12:17:02.213Z,9.93
2018-07-30T12:19:31.506Z,9.95
2018-07-30T12:22:00.447Z,9.25
2018-07-30T12:24:29.774Z,9.00
2018-07-30T12:26:58.528Z,10.00
2018-07-30T12:29:27.581Z,8.75
2018-07-30T12:31:56.591Z,9.08
2018-07-30T12:34:25.298Z,8.95
2018-07-30T12:36:53.920Z,8.98
2018-07-30T12:39:22.558Z,9.48
2018-07-30T12:41:51.276Z,9.43
2018-07-30T12:44:20.229Z,8.75
2018-07-30T12:46:49.188Z,8.80
2018-07-30T12:49:17.816Z,8.73
2018-07-30T12:51:46.511Z,8.73
2018-07-30T12:54:15.549Z,9.20
2018-07-30T12:56:44.195Z,8.90
2018-07-30T12:59:13.522Z,8.90
2018-07-30T13:01:42.553Z,8.90
2018-07-30T13:04:11.207Z,8.70
2018-07-30T13:06:40.506Z,8.80
2018-07-30T13:09:09.601Z,8.60
2018-07-30T13:11:38.279Z,8.80
2018-07-30T13:14:06.898Z,8.70
2018-07-30T13:16:35.876Z,8.90
2018-07-30T13:19:05.359Z,8.70
2018-07-30T13:21:34.390Z,8.45
2018-07-30T13:24:03.122Z,8.63
2018-07-30T13:26:32.702Z,8.80
2018-07-30T13:29:01.356Z,8.40
2018-07-30T13:31:30.032Z,8.35
2018-07-30T13:33:58.666Z,8.63
2018-07-30T13:36:27.356Z,8.50
2018-07-30T13:38:56.038Z,8.88
2018-07-30T13:41:25.187Z,9.13
2018-07-30T13:43:54.002Z,8.60
2018-07-30T13:46:22.807Z,8.70
2018-07-30T13:48:51.676Z,8.75
2018-07-30T13:51:20.357Z,8.95
2018-07-30T13:53:49.356Z,8.75
2018-07-30T13:56:18.298Z,8.85
2018-07-30T13:58:46.969Z,8.48
2018-07-30T14:01:15.695Z,8.75
2018-07-30T14:03:44.736Z,8.53
2018-07-30T14:06:13.516Z,8.55
2018-07-30T14:08:42.447Z,8.70
2018-07-30T14:11:11.396Z,8.63
2018-07-30T14:13:40.198Z,9.20
2018-07-30T14:16:09.177Z,9.00
2018-07-30T14:18:37.885Z,8.65
2018-07-30T14:21:07.086Z,10.00
2018-07-30T14:23:36.057Z,12.43
2018-07-30T14:26:05.079Z,9.40
2018-07-30T14:28:34.038Z,9.10
2018-07-30T14:31:03.244Z,8.98
2018-07-30T14:33:32.277Z,8.80
2018-07-30T14:36:02.051Z,9.28
2018-07-30T14:38:30.727Z,9.05
2018-07-30T14:41:00.572Z,9.00
2018-07-30T14:43:29.478Z,9.10
2018-07-30T14:45:58.438Z,9.48
2018-07-30T14:48:27.130Z,9.38
2018-07-30T14:50:56.295Z,10.05
2018-07-30T14:53:25.064Z,9.88
2018-07-30T14:55:53.769Z,9.80
2018-07-30T14:58:22.493Z,9.93
2018-07-30T15:00:51.482Z,10.68
2018-07-30T15:03:20.636Z,10.40
2018-07-30T15:05:49.704Z,10.43
2018-07-30T15:08:18.582Z,10.30
2018-07-30T15:10:47.426Z,10.80
2018-07-30T15:13:16.174Z,11.40
2018-07-30T15:15:45.043Z,11.40
2018-07-30T15:18:16.709Z,11.13
2018-07-30T15:20:45.548Z,10.83
2018-07-30T15:23:14.414Z,10.83
2018-07-30T15:25:52.105Z,11.13
2018-07-30T15:28:20.926Z,11.40
2018-07-30T15:30:49.943Z,11.13
2018-07-30T15:33:18.703Z,11.23
2018-07-30T15:35:47.847Z,11.30
2018-07-30T15:38:16.798Z,11.33
2018-07-30T15:40:45.893Z,11.10
2018-07-30T15:43:15.763Z,11.43
2018-07-30T15:45:44.577Z,10.93
2018-07-30T15:48:18.172Z,10.60
2018-07-30T15:50:49.594Z,11.27
2018-07-30T15:53:18.392Z,11.27
2018-07-30T15:55:48.109Z,12.10
2018-07-30T15:58:16.896Z,11.50
2018-07-30T16:00:46.017Z,11.30
2018-07-30T16:03:25.800Z,11.63
2018-07-30T16:05:58.755Z,11.40
2018-07-30T16:08:31.576Z,11.83
2018-07-30T16:11:05.108Z,12.27
2018-07-30T16:13:34.083Z,11.67
2018-07-30T16:16:02.845Z,11.70
2018-07-30T16:18:31.673Z,11.03
2018-07-30T16:21:04.569Z,11.30
2018-07-30T16:23:35.024Z,11.17
2018-07-30T16:26:03.994Z,11.10
2018-07-30T16:28:37.544Z,11.17
2018-07-30T16:31:06.462Z,11.03
2018-07-30T16:33:36.380Z,11.17
2018-07-30T16:36:05.796Z,11.30
2018-07-30T16:38:35.578Z,11.53
2018-07-30T16:41:06.535Z,11.10
2018-07-30T16:43:37.497Z,11.63
2018-07-30T16:46:08.293Z,11.50
2018-07-30T16:48:37.019Z,11.40
2018-07-30T16:51:05.709Z,11.40
2018-07-30T16:53:34.740Z,11.37
2018-07-30T16:56:03.430Z,11.33
2018-07-30T16:58:32.251Z,11.70
2018-07-30T17:01:02.743Z,11.37
2018-07-30T17:03:31.625Z,11.60
2018-07-30T17:06:00.607Z,11.10
2018-07-30T17:08:31.433Z,11.60
2018-07-30T17:11:01.028Z,11.40
2018-07-30T17:13:32.190Z,11.20
2018-07-30T17:16:02.416Z,11.00
2018-07-30T17:18:32.686Z,10.97
2018-07-30T17:21:05.132Z,11.77
2018-07-30T17:23:33.920Z,11.93
2018-07-30T17:26:03.090Z,11.50
2018-07-30T17:28:31.787Z,11.07
2018-07-30T17:31:00.625Z,11.70
2018-07-30T17:33:29.661Z,11.10
2018-07-30T17:35:58.313Z,11.03
2018-07-30T17:38:27.063Z,11.23
2018-07-30T17:40:56.030Z,13.33
2018-07-30T17:43:24.741Z,11.70
2018-07-30T17:45:53.553Z,11.50
2018-07-30T17:48:22.643Z,10.70
2018-07-30T17:50:51.748Z,11.60
2018-07-30T17:53:20.534Z,10.83
2018-07-30T17:55:50.385Z,11.90
2018-07-30T17:58:19.168Z,11.10
2018-07-30T18:00:48.573Z,11.17
2018-07-30T18:03:17.671Z,11.10
2018-07-30T18:05:46.403Z,10.97
2018-07-30T18:08:15.358Z,11.10
2018-07-30T18:10:44.074Z,10.90
2018-07-30T18:13:12.874Z,10.80
2018-07-30T18:15:41.680Z,10.60
2018-07-30T18:18:10.505Z,10.90
2018-07-30T18:20:39.404Z,10.80
2018-07-30T18:23:08.287Z,11.13
2018-07-30T18:25:37.006Z,11.03
2018-07-30T18:28:05.936Z,10.60
2018-07-30T18:30:34.622Z,11.00
2018-07-30T18:33:03.544Z,10.77
2018-07-30T18:35:32.283Z,10.80
2018-07-30T18:38:04.603Z,10.60
2018-07-30T18:40:33.535Z,11.10
2018-07-30T18:43:02.289Z,11.47
2018-07-30T18:45:32.004Z,11.10
2018-07-30T18:48:00.683Z,10.50
2018-07-30T18:50:29.330Z,11.30
2018-07-30T18:52:58.070Z,10.43
2018-07-30T18:55:26.773Z,10.47
2018-07-30T18:57:55.445Z,11.20
2018-07-30T19:00:24.358Z,11.40
2018-07-30T19:02:53.357Z,11.20
2018-07-30T19:05:22.359Z,10.93
2018-07-30T19:07:51.046Z,11.53
2018-07-30T19:10:19.685Z,10.87
2018-07-30T19:12:48.543Z,11.20
2018-07-30T19:15:17.491Z,11.07
2018-07-30T19:17:46.223Z,11.27
2018-07-30T19:20:14.894Z,11.70
2018-07-30T19:22:43.871Z,11.40
2018-07-30T19:25:12.562Z,11.50
2018-07-30T19:27:41.467Z,11.40
2018-07-30T19:30:10.429Z,11.23
2018-07-30T19:32:39.109Z,12.03
2018-07-30T19:35:08.292Z,11.23
2018-07-30T19:37:37.538Z,11.50
2018-07-30T19:40:06.925Z,11.57
2018-07-30T19:42:35.718Z,11.67
2018-07-30T19:45:04.869Z,11.07
2018-07-30T19:47:34.107Z,12.13
2018-07-30T19:50:02.808Z,10.93
2018-07-30T19:52:31.746Z,11.77
2018-07-30T19:55:00.597Z,11.57
2018-07-30T19:57:29.851Z,11.40
2018-07-30T19:59:58.624Z,11.13
2018-07-30T20:02:27.567Z,11.50
2018-07-30T20:04:56.222Z,11.60
2018-07-30T20:07:24.968Z,11.73
2018-07-30T20:12:22.287Z,11.50
2018-07-30T20:14:51.262Z,11.87
2018-07-30T20:17:20.126Z,12.30
2018-07-30T20:19:48.745Z,11.53
2018-07-30T20:22:17.791Z,11.63
2018-07-30T20:24:46.511Z,12.20
2018-07-30T20:27:15.184Z,11.47
2018-07-30T20:29:43.834Z,18.70
2018-07-30T20:32:12.766Z,24.73
2018-07-30T20:34:42.434Z,16.03
2018-07-30T20:37:11.114Z,12.90
2018-07-30T20:39:39.816Z,12.03
2018-07-30T20:42:08.534Z,11.20
2018-07-30T20:44:37.186Z,11.70
2018-07-30T20:47:06.016Z,11.47
2018-07-30T20:49:35.088Z,11.93
2018-07-30T20:52:04.170Z,11.50
2018-07-30T20:54:32.889Z,11.30
2018-07-30T20:57:01.523Z,11.47
2018-07-30T20:59:30.878Z,11.70
2018-07-30T21:01:59.549Z,11.57
2018-07-30T21:04:28.535Z,11.40
2018-07-30T21:06:57.200Z,12.00
2018-07-30T21:09:26.326Z,11.50
2018-07-30T21:11:55.394Z,11.30
2018-07-30T21:14:24.070Z,11.40
2018-07-30T21:16:52.819Z,11.70
2018-07-30T21:19:21.996Z,12.00
2018-07-30T21:21:50.990Z,11.80
2018-07-30T21:24:19.849Z,11.50
2018-07-30T21:26:48.709Z,11.20
2018-07-30T21:29:17.674Z,11.80
2018-07-30T21:31:46.281Z,13.10
2018-07-30T21:34:15.225Z,24.43
2018-07-30T21:36:43.981Z,13.53
2018-07-30T21:39:14.140Z,11.53
2018-07-30T21:41:42.916Z,11.70
2018-07-30T21:44:12.176Z,11.53
2018-07-30T21:46:41.997Z,12.73
2018-07-30T21:49:10.689Z,12.73
2018-07-30T21:51:39.576Z,12.33
2018-07-30T21:54:08.518Z,12.60
2018-07-30T21:56:37.129Z,11.97
2018-07-30T21:59:05.811Z,11.57
2018-07-30T22:01:34.553Z,11.90
2018-07-30T22:04:03.504Z,11.93
2018-07-30T22:06:32.498Z,12.07
2018-07-30T22:09:01.676Z,11.70
2018-07-30T22:11:30.310Z,12.47
2018-07-30T22:13:59.272Z,12.40
2018-07-30T22:16:27.990Z,12.37
2018-07-30T22:18:57.019Z,12.80
2018-07-30T22:21:25.913Z,12.33
2018-07-30T22:23:54.843Z,12.30
2018-07-30T22:26:23.551Z,11.87
2018-07-30T22:28:52.219Z,12.00
2018-07-30T22:31:21.093Z,12.37
2018-07-30T22:33:49.760Z,13.33
2018-07-30T22:36:18.664Z,12.50
2018-07-30T22:38:47.339Z,12.60
2018-07-30T22:41:16.367Z,13.00
2018-07-30T22:43:45.614Z,11.63
2018-07-30T22:46:14.260Z,12.30
2018-07-30T22:48:43.232Z,12.43
2018-07-30T22:51:11.850Z,12.57
2018-07-30T22:53:40.513Z,11.90
2018-07-30T22:56:09.657Z,12.30
2018-07-30T22:58:38.284Z,12.20
2018-07-30T23:01:07.281Z,12.70
2018-07-30T23:03:36.262Z,11.90
2018-07-30T23:19:27.797Z,12.30
2018-07-30T23:21:56.749Z,11.47
2018-07-30T23:24:25.426Z,11.67
2018-07-30T23:26:54.045Z,12.70
2018-07-30T23:29:22.633Z,12.20
2018-07-30T23:31:51.262Z,12.90
2018-07-30T23:34:20.245Z,12.17
2018-07-30T23:36:49.228Z,12.20
2018-07-30T23:39:17.849Z,12.50
2018-07-30T23:41:49.644Z,12.13
2018-07-30T23:44:18.811Z,12.10
2018-07-30T23:46:47.865Z,11.87
2018-07-30T23:49:16.730Z,12.63
2018-07-30T23:51:45.350Z,12.67
2018-07-30T23:54:14.292Z,13.17
2018-07-30T23:56:43.227Z,12.70
2018-07-30T23:59:11.911Z,13.50
